sensor_id;sensor_type;location;lat;lon;timestamp;temperature;humidity
35692;DHT22;26978;44.830;-0.674;2023-02-22T00:00:13;11.80;99.90
35692;DHT22;26978;44.830;-0.674;2023-02-22T00:02:48;11.80;99.90
35692;DHT22;26978;44.830;-0.674;2023-02-22T00:05:14;11.90;99.90
35692;DHT22;26978;44.830;-0.674;2023-02-22T00:07:47;11.90;99.90
35692;DHT22;26978;44.830;-0.674;2023-02-22T00:10:14;11.90;99.90
35692;DHT22;26978;44.830;-0.674;2023-02-22T00:12:47;11.90;99.90
35692;DHT22;26978;44.830;-0.674;2023-02-22T00:15:14;11.90;99.90
35692;DHT22;26978;44.830;-0.674;2023-02-22T00:17:41;11.90;99.90
35692;DHT22;26978;44.830;-0.674;2023-02-22T00:20:07;12.00;99.90
35692;DHT22;26978;44.830;-0.674;2023-02-22T00:22:34;12.00;99.90
35692;DHT22;26978;44.830;-0.674;2023-02-22T00:24:59;11.90;99.90
35692;DHT22;26978;44.830;-0.674;2023-02-22T00:27:25;11.90;99.90
35692;DHT22;26978;44.830;-0.674;2023-02-22T00:29:51;11.90;99.90
35692;DHT22;26978;44.830;-0.674;2023-02-22T00:32:16;11.90;99.90
35692;DHT22;26978;44.830;-0.674;2023-02-22T00:34:42;11.90;99.90
35692;DHT22;26978;44.830;-0.674;2023-02-22T00:37:08;11.90;99.90
35692;DHT22;26978;44.830;-0.674;2023-02-22T00:39:34;11.90;99.90
35692;DHT22;26978;44.830;-0.674;2023-02-22T00:42:00;11.90;99.90
35692;DHT22;26978;44.830;-0.674;2023-02-22T00:44:25;11.90;99.90
35692;DHT22;26978;44.830;-0.674;2023-02-22T00:46:51;11.90;99.90
35692;DHT22;26978;44.830;-0.674;2023-02-22T00:49:17;11.90;99.90
35692;DHT22;26978;44.830;-0.674;2023-02-22T00:51:42;11.90;99.90
35692;DHT22;26978;44.830;-0.674;2023-02-22T00:54:08;11.80;99.90
35692;DHT22;26978;44.830;-0.674;2023-02-22T00:56:35;11.80;99.90
35692;DHT22;26978;44.830;-0.674;2023-02-22T00:59:02;11.80;99.90
35692;DHT22;26978;44.830;-0.674;2023-02-22T01:01:27;11.80;99.90
35692;DHT22;26978;44.830;-0.674;2023-02-22T01:03:53;11.80;99.90
35692;DHT22;26978;44.830;-0.674;2023-02-22T01:06:18;11.80;99.90
35692;DHT22;26978;44.830;-0.674;2023-02-22T01:08:44;11.80;99.90
35692;DHT22;26978;44.830;-0.674;2023-02-22T01:11:10;11.80;99.90
35692;DHT22;26978;44.830;-0.674;2023-02-22T01:13:36;11.80;99.90
35692;DHT22;26978;44.830;-0.674;2023-02-22T01:16:02;11.80;99.90
35692;DHT22;26978;44.830;-0.674;2023-02-22T01:18:27;11.80;99.90
35692;DHT22;26978;44.830;-0.674;2023-02-22T01:20:53;11.90;99.90
35692;DHT22;26978;44.830;-0.674;2023-02-22T01:23:18;11.80;99.90
35692;DHT22;26978;44.830;-0.674;2023-02-22T01:25:44;11.80;99.90
35692;DHT22;26978;44.830;-0.674;2023-02-22T01:28:09;11.80;99.90
35692;DHT22;26978;44.830;-0.674;2023-02-22T01:30:35;11.80;99.90
35692;DHT22;26978;44.830;-0.674;2023-02-22T01:33:02;11.80;99.90
35692;DHT22;26978;44.830;-0.674;2023-02-22T01:35:30;11.80;99.90
35692;DHT22;26978;44.830;-0.674;2023-02-22T01:37:56;11.80;99.90
35692;DHT22;26978;44.830;-0.674;2023-02-22T01:40:26;11.80;99.90
35692;DHT22;26978;44.830;-0.674;2023-02-22T01:42:53;11.80;99.90
35692;DHT22;26978;44.830;-0.674;2023-02-22T01:48:07;11.80;99.90
35692;DHT22;26978;44.830;-0.674;2023-02-22T01:50:38;11.80;99.90
35692;DHT22;26978;44.830;-0.674;2023-02-22T01:53:04;11.80;99.90
35692;DHT22;26978;44.830;-0.674;2023-02-22T01:55:32;11.90;99.90
35692;DHT22;26978;44.830;-0.674;2023-02-22T01:57:58;11.90;99.90
35692;DHT22;26978;44.830;-0.674;2023-02-22T02:00:23;11.90;99.90
35692;DHT22;26978;44.830;-0.674;2023-02-22T02:02:58;11.80;99.90
35692;DHT22;26978;44.830;-0.674;2023-02-22T02:05:25;11.80;99.90
35692;DHT22;26978;44.830;-0.674;2023-02-22T02:07:51;11.90;99.90
35692;DHT22;26978;44.830;-0.674;2023-02-22T02:10:17;11.90;99.90
35692;DHT22;26978;44.830;-0.674;2023-02-22T02:12:43;12.00;99.90
35692;DHT22;26978;44.830;-0.674;2023-02-22T02:15:17;11.90;99.90
35692;DHT22;26978;44.830;-0.674;2023-02-22T02:17:42;11.90;99.90
35692;DHT22;26978;44.830;-0.674;2023-02-22T02:22:40;11.90;99.90
35692;DHT22;26978;44.830;-0.674;2023-02-22T02:36:06;11.80;99.90
35692;DHT22;26978;44.830;-0.674;2023-02-22T02:38:38;11.80;99.90
35692;DHT22;26978;44.830;-0.674;2023-02-22T02:41:09;11.80;99.90
35692;DHT22;26978;44.830;-0.674;2023-02-22T02:46:09;11.80;99.90
35692;DHT22;26978;44.830;-0.674;2023-02-22T02:48:37;11.80;99.90
35692;DHT22;26978;44.830;-0.674;2023-02-22T02:51:04;11.70;99.90
35692;DHT22;26978;44.830;-0.674;2023-02-22T02:53:35;11.70;99.90
35692;DHT22;26978;44.830;-0.674;2023-02-22T02:56:01;11.70;99.90
35692;DHT22;26978;44.830;-0.674;2023-02-22T02:58:27;11.70;99.90
35692;DHT22;26978;44.830;-0.674;2023-02-22T03:00:54;11.70;99.90
35692;DHT22;26978;44.830;-0.674;2023-02-22T03:06:09;11.70;99.90
35692;DHT22;26978;44.830;-0.674;2023-02-22T03:11:41;11.70;99.90
35692;DHT22;26978;44.830;-0.674;2023-02-22T03:14:15;11.70;99.90
35692;DHT22;26978;44.830;-0.674;2023-02-22T03:16:48;11.60;99.90
35692;DHT22;26978;44.830;-0.674;2023-02-22T03:19:34;11.70;99.90
35692;DHT22;26978;44.830;-0.674;2023-02-22T03:22:04;11.60;99.90
35692;DHT22;26978;44.830;-0.674;2023-02-22T03:24:48;11.60;99.90
35692;DHT22;26978;44.830;-0.674;2023-02-22T03:27:19;11.60;99.90
35692;DHT22;26978;44.830;-0.674;2023-02-22T03:29:47;11.60;99.90
35692;DHT22;26978;44.830;-0.674;2023-02-22T03:32:16;11.70;99.90
35692;DHT22;26978;44.830;-0.674;2023-02-22T03:34:54;11.70;99.90
35692;DHT22;26978;44.830;-0.674;2023-02-22T03:37:22;11.70;99.90
35692;DHT22;26978;44.830;-0.674;2023-02-22T03:39:50;11.70;99.90
35692;DHT22;26978;44.830;-0.674;2023-02-22T03:42:17;11.70;99.90
35692;DHT22;26978;44.830;-0.674;2023-02-22T03:44:44;11.70;99.90
35692;DHT22;26978;44.830;-0.674;2023-02-22T03:47:12;11.70;99.90
35692;DHT22;26978;44.830;-0.674;2023-02-22T03:49:40;11.70;99.90
35692;DHT22;26978;44.830;-0.674;2023-02-22T03:52:06;11.70;99.90
35692;DHT22;26978;44.830;-0.674;2023-02-22T03:54:32;11.70;99.90
35692;DHT22;26978;44.830;-0.674;2023-02-22T03:59:36;11.70;99.90
35692;DHT22;26978;44.830;-0.674;2023-02-22T04:02:02;11.70;99.90
35692;DHT22;26978;44.830;-0.674;2023-02-22T04:04:28;11.70;99.90
35692;DHT22;26978;44.830;-0.674;2023-02-22T04:06:53;11.70;99.90
35692;DHT22;26978;44.830;-0.674;2023-02-22T04:09:19;11.70;99.90
35692;DHT22;26978;44.830;-0.674;2023-02-22T04:11:45;11.70;99.90
35692;DHT22;26978;44.830;-0.674;2023-02-22T04:14:10;11.70;99.90
35692;DHT22;26978;44.830;-0.674;2023-02-22T04:16:36;11.70;99.90
35692;DHT22;26978;44.830;-0.674;2023-02-22T04:19:02;11.70;99.90
35692;DHT22;26978;44.830;-0.674;2023-02-22T04:21:27;11.70;99.90
35692;DHT22;26978;44.830;-0.674;2023-02-22T04:23:53;11.70;99.90
35692;DHT22;26978;44.830;-0.674;2023-02-22T04:26:18;11.70;99.90
35692;DHT22;26978;44.830;-0.674;2023-02-22T04:28:44;11.60;99.90
35692;DHT22;26978;44.830;-0.674;2023-02-22T04:31:09;11.70;99.90
35692;DHT22;26978;44.830;-0.674;2023-02-22T04:33:35;11.60;99.90
35692;DHT22;26978;44.830;-0.674;2023-02-22T04:36:00;11.60;99.90
35692;DHT22;26978;44.830;-0.674;2023-02-22T04:38:26;11.70;99.90
35692;DHT22;26978;44.830;-0.674;2023-02-22T04:40:52;11.70;99.90
35692;DHT22;26978;44.830;-0.674;2023-02-22T04:43:18;11.60;99.90
35692;DHT22;26978;44.830;-0.674;2023-02-22T04:45:43;11.70;99.90
35692;DHT22;26978;44.830;-0.674;2023-02-22T04:48:09;11.60;99.90
35692;DHT22;26978;44.830;-0.674;2023-02-22T04:50:34;11.60;99.90
35692;DHT22;26978;44.830;-0.674;2023-02-22T04:53:00;11.60;99.90
35692;DHT22;26978;44.830;-0.674;2023-02-22T04:55:26;11.60;99.90
35692;DHT22;26978;44.830;-0.674;2023-02-22T04:57:52;11.60;99.90
35692;DHT22;26978;44.830;-0.674;2023-02-22T05:00:18;11.60;99.90
35692;DHT22;26978;44.830;-0.674;2023-02-22T05:02:46;11.50;99.90
35692;DHT22;26978;44.830;-0.674;2023-02-22T05:05:12;11.60;99.90
35692;DHT22;26978;44.830;-0.674;2023-02-22T05:07:38;11.60;99.90
35692;DHT22;26978;44.830;-0.674;2023-02-22T05:10:03;11.50;99.90
35692;DHT22;26978;44.830;-0.674;2023-02-22T05:12:29;11.50;99.90
35692;DHT22;26978;44.830;-0.674;2023-02-22T05:14:55;11.50;99.90
35692;DHT22;26978;44.830;-0.674;2023-02-22T05:17:20;11.60;99.90
35692;DHT22;26978;44.830;-0.674;2023-02-22T05:19:46;11.60;99.90
35692;DHT22;26978;44.830;-0.674;2023-02-22T05:22:11;11.60;99.90
35692;DHT22;26978;44.830;-0.674;2023-02-22T05:24:37;11.70;99.90
35692;DHT22;26978;44.830;-0.674;2023-02-22T05:27:03;11.70;99.90
35692;DHT22;26978;44.830;-0.674;2023-02-22T05:29:28;11.70;99.90
35692;DHT22;26978;44.830;-0.674;2023-02-22T05:31:54;11.70;99.90
35692;DHT22;26978;44.830;-0.674;2023-02-22T05:34:19;11.80;99.90
35692;DHT22;26978;44.830;-0.674;2023-02-22T05:36:45;11.70;99.90
35692;DHT22;26978;44.830;-0.674;2023-02-22T05:39:10;11.70;99.90
35692;DHT22;26978;44.830;-0.674;2023-02-22T05:41:36;11.70;99.90
35692;DHT22;26978;44.830;-0.674;2023-02-22T05:44:02;11.70;99.90
35692;DHT22;26978;44.830;-0.674;2023-02-22T05:46:27;11.80;99.90
35692;DHT22;26978;44.830;-0.674;2023-02-22T05:48:53;11.70;99.90
35692;DHT22;26978;44.830;-0.674;2023-02-22T05:51:18;11.80;99.90
35692;DHT22;26978;44.830;-0.674;2023-02-22T05:53:44;11.80;99.90
35692;DHT22;26978;44.830;-0.674;2023-02-22T05:56:09;11.80;99.90
35692;DHT22;26978;44.830;-0.674;2023-02-22T05:58:35;11.90;99.90
35692;DHT22;26978;44.830;-0.674;2023-02-22T06:01:00;11.90;99.90
35692;DHT22;26978;44.830;-0.674;2023-02-22T06:03:26;11.90;99.90
35692;DHT22;26978;44.830;-0.674;2023-02-22T06:05:52;11.90;99.90
35692;DHT22;26978;44.830;-0.674;2023-02-22T06:08:17;11.90;99.90
35692;DHT22;26978;44.830;-0.674;2023-02-22T06:10:43;11.90;99.90
35692;DHT22;26978;44.830;-0.674;2023-02-22T06:13:08;11.90;99.90
35692;DHT22;26978;44.830;-0.674;2023-02-22T06:15:34;11.90;99.90
35692;DHT22;26978;44.830;-0.674;2023-02-22T06:18:00;12.00;99.90
35692;DHT22;26978;44.830;-0.674;2023-02-22T06:20:26;11.90;99.90
35692;DHT22;26978;44.830;-0.674;2023-02-22T06:22:53;11.90;99.90
35692;DHT22;26978;44.830;-0.674;2023-02-22T06:25:23;11.90;99.90
35692;DHT22;26978;44.830;-0.674;2023-02-22T06:27:49;11.90;99.90
35692;DHT22;26978;44.830;-0.674;2023-02-22T06:30:16;11.90;99.90
35692;DHT22;26978;44.830;-0.674;2023-02-22T06:32:42;11.90;99.90
35692;DHT22;26978;44.830;-0.674;2023-02-22T06:35:07;11.90;99.90
35692;DHT22;26978;44.830;-0.674;2023-02-22T06:37:33;11.90;99.90
35692;DHT22;26978;44.830;-0.674;2023-02-22T06:39:59;11.90;99.90
35692;DHT22;26978;44.830;-0.674;2023-02-22T06:42:24;11.80;99.90
35692;DHT22;26978;44.830;-0.674;2023-02-22T06:44:50;11.80;99.90
35692;DHT22;26978;44.830;-0.674;2023-02-22T06:47:15;11.80;99.90
35692;DHT22;26978;44.830;-0.674;2023-02-22T06:49:41;11.80;99.90
35692;DHT22;26978;44.830;-0.674;2023-02-22T06:52:07;11.80;99.90
35692;DHT22;26978;44.830;-0.674;2023-02-22T06:54:33;11.80;99.90
35692;DHT22;26978;44.830;-0.674;2023-02-22T06:56:58;11.80;99.90
35692;DHT22;26978;44.830;-0.674;2023-02-22T06:59:24;11.80;99.90
35692;DHT22;26978;44.830;-0.674;2023-02-22T07:01:49;11.80;99.90
35692;DHT22;26978;44.830;-0.674;2023-02-22T07:04:15;11.80;99.90
35692;DHT22;26978;44.830;-0.674;2023-02-22T07:06:44;11.80;99.90
35692;DHT22;26978;44.830;-0.674;2023-02-22T07:09:10;11.80;99.90
35692;DHT22;26978;44.830;-0.674;2023-02-22T07:11:37;11.80;99.90
35692;DHT22;26978;44.830;-0.674;2023-02-22T07:14:03;11.80;99.90
35692;DHT22;26978;44.830;-0.674;2023-02-22T07:16:28;11.80;99.90
35692;DHT22;26978;44.830;-0.674;2023-02-22T07:18:54;11.90;99.90
35692;DHT22;26978;44.830;-0.674;2023-02-22T07:21:19;11.90;99.90
35692;DHT22;26978;44.830;-0.674;2023-02-22T07:23:52;11.90;99.90
35692;DHT22;26978;44.830;-0.674;2023-02-22T07:26:17;11.90;99.90
35692;DHT22;26978;44.830;-0.674;2023-02-22T07:28:43;11.90;99.90
35692;DHT22;26978;44.830;-0.674;2023-02-22T07:31:09;11.90;99.90
35692;DHT22;26978;44.830;-0.674;2023-02-22T07:33:35;11.90;99.90
35692;DHT22;26978;44.830;-0.674;2023-02-22T07:36:00;12.00;99.90
35692;DHT22;26978;44.830;-0.674;2023-02-22T07:38:26;12.00;99.90
35692;DHT22;26978;44.830;-0.674;2023-02-22T07:40:51;12.00;99.90
35692;DHT22;26978;44.830;-0.674;2023-02-22T07:43:18;12.00;99.90
35692;DHT22;26978;44.830;-0.674;2023-02-22T07:45:44;12.00;99.90
35692;DHT22;26978;44.830;-0.674;2023-02-22T07:48:10;12.00;99.90
35692;DHT22;26978;44.830;-0.674;2023-02-22T07:50:36;12.10;99.90
35692;DHT22;26978;44.830;-0.674;2023-02-22T07:53:03;12.10;99.90
35692;DHT22;26978;44.830;-0.674;2023-02-22T07:55:29;12.10;99.90
35692;DHT22;26978;44.830;-0.674;2023-02-22T07:57:56;12.10;99.90
35692;DHT22;26978;44.830;-0.674;2023-02-22T08:00:25;12.10;99.90
35692;DHT22;26978;44.830;-0.674;2023-02-22T08:02:51;12.20;99.90
35692;DHT22;26978;44.830;-0.674;2023-02-22T08:05:17;12.20;99.90
35692;DHT22;26978;44.830;-0.674;2023-02-22T08:07:43;12.30;99.90
35692;DHT22;26978;44.830;-0.674;2023-02-22T08:10:09;12.40;99.90
35692;DHT22;26978;44.830;-0.674;2023-02-22T08:12:35;12.40;99.90
35692;DHT22;26978;44.830;-0.674;2023-02-22T08:15:04;12.50;99.90
35692;DHT22;26978;44.830;-0.674;2023-02-22T08:17:31;12.60;99.90
35692;DHT22;26978;44.830;-0.674;2023-02-22T08:19:56;12.60;99.90
35692;DHT22;26978;44.830;-0.674;2023-02-22T08:22:22;12.60;99.90
35692;DHT22;26978;44.830;-0.674;2023-02-22T08:24:48;12.60;99.90
35692;DHT22;26978;44.830;-0.674;2023-02-22T08:27:14;12.60;99.90
35692;DHT22;26978;44.830;-0.674;2023-02-22T08:29:39;12.60;99.90
35692;DHT22;26978;44.830;-0.674;2023-02-22T08:32:05;12.60;99.90
35692;DHT22;26978;44.830;-0.674;2023-02-22T08:34:30;12.60;99.90
35692;DHT22;26978;44.830;-0.674;2023-02-22T08:36:56;12.60;99.90
35692;DHT22;26978;44.830;-0.674;2023-02-22T08:39:21;12.70;99.90
35692;DHT22;26978;44.830;-0.674;2023-02-22T08:41:47;12.70;99.90
35692;DHT22;26978;44.830;-0.674;2023-02-22T08:44:12;12.80;99.90
35692;DHT22;26978;44.830;-0.674;2023-02-22T08:46:38;12.80;99.90
35692;DHT22;26978;44.830;-0.674;2023-02-22T08:49:04;12.80;99.90
35692;DHT22;26978;44.830;-0.674;2023-02-22T08:51:35;12.80;99.90
35692;DHT22;26978;44.830;-0.674;2023-02-22T08:54:01;12.70;99.90
35692;DHT22;26978;44.830;-0.674;2023-02-22T08:56:28;12.80;99.90
35692;DHT22;26978;44.830;-0.674;2023-02-22T08:58:54;12.80;99.90
35692;DHT22;26978;44.830;-0.674;2023-02-22T09:01:22;12.80;99.90
35692;DHT22;26978;44.830;-0.674;2023-02-22T09:03:49;12.80;99.90
35692;DHT22;26978;44.830;-0.674;2023-02-22T09:06:14;12.80;99.90
35692;DHT22;26978;44.830;-0.674;2023-02-22T09:08:40;12.90;99.90
35692;DHT22;26978;44.830;-0.674;2023-02-22T09:11:05;12.90;99.90
35692;DHT22;26978;44.830;-0.674;2023-02-22T09:13:31;13.00;99.90
35692;DHT22;26978;44.830;-0.674;2023-02-22T09:15:56;13.00;99.90
35692;DHT22;26978;44.830;-0.674;2023-02-22T09:18:22;13.00;99.90
35692;DHT22;26978;44.830;-0.674;2023-02-22T09:20:48;13.10;99.90
35692;DHT22;26978;44.830;-0.674;2023-02-22T09:23:13;13.20;99.90
35692;DHT22;26978;44.830;-0.674;2023-02-22T09:25:39;13.10;99.90
35692;DHT22;26978;44.830;-0.674;2023-02-22T09:28:05;13.10;99.90
35692;DHT22;26978;44.830;-0.674;2023-02-22T09:30:31;13.10;99.90
35692;DHT22;26978;44.830;-0.674;2023-02-22T09:32:58;13.20;99.90
35692;DHT22;26978;44.830;-0.674;2023-02-22T09:35:25;13.10;99.90
35692;DHT22;26978;44.830;-0.674;2023-02-22T09:37:54;13.10;99.90
35692;DHT22;26978;44.830;-0.674;2023-02-22T09:40:20;13.30;99.90
35692;DHT22;26978;44.830;-0.674;2023-02-22T09:45:27;13.20;99.90
35692;DHT22;26978;44.830;-0.674;2023-02-22T09:47:56;13.20;99.90
35692;DHT22;26978;44.830;-0.674;2023-02-22T09:50:31;13.00;99.90
35692;DHT22;26978;44.830;-0.674;2023-02-22T09:55:32;12.90;99.90
35692;DHT22;26978;44.830;-0.674;2023-02-22T09:58:00;12.90;99.90
35692;DHT22;26978;44.830;-0.674;2023-02-22T10:00:29;12.90;99.90
35692;DHT22;26978;44.830;-0.674;2023-02-22T10:05:43;12.90;99.90
35692;DHT22;26978;44.830;-0.674;2023-02-22T10:08:14;13.00;99.90
35692;DHT22;26978;44.830;-0.674;2023-02-22T10:10:43;13.10;99.90
35692;DHT22;26978;44.830;-0.674;2023-02-22T10:16:34;13.50;99.90
35692;DHT22;26978;44.830;-0.674;2023-02-22T10:26:19;13.30;99.90
35692;DHT22;26978;44.830;-0.674;2023-02-22T10:28:51;13.20;99.90
35692;DHT22;26978;44.830;-0.674;2023-02-22T10:31:22;13.30;99.90
35692;DHT22;26978;44.830;-0.674;2023-02-22T10:33:51;13.30;99.90
35692;DHT22;26978;44.830;-0.674;2023-02-22T10:36:21;13.20;99.90
35692;DHT22;26978;44.830;-0.674;2023-02-22T10:38:55;13.20;99.90
35692;DHT22;26978;44.830;-0.674;2023-02-22T10:41:25;13.20;99.90
35692;DHT22;26978;44.830;-0.674;2023-02-22T10:43:52;12.90;99.90
35692;DHT22;26978;44.830;-0.674;2023-02-22T10:46:17;12.90;99.90
35692;DHT22;26978;44.830;-0.674;2023-02-22T10:48:45;12.80;99.90
35692;DHT22;26978;44.830;-0.674;2023-02-22T10:51:11;12.80;99.90
35692;DHT22;26978;44.830;-0.674;2023-02-22T10:53:37;12.70;99.90
35692;DHT22;26978;44.830;-0.674;2023-02-22T10:56:07;12.80;99.90
35692;DHT22;26978;44.830;-0.674;2023-02-22T10:58:43;13.00;99.90
35692;DHT22;26978;44.830;-0.674;2023-02-22T11:01:20;13.20;99.90
35692;DHT22;26978;44.830;-0.674;2023-02-22T11:06:32;13.20;99.90
35692;DHT22;26978;44.830;-0.674;2023-02-22T11:09:41;13.10;99.90
35692;DHT22;26978;44.830;-0.674;2023-02-22T11:14:31;12.90;99.90
35692;DHT22;26978;44.830;-0.674;2023-02-22T11:16:57;12.80;99.90
35692;DHT22;26978;44.830;-0.674;2023-02-22T11:19:24;12.80;99.90
35692;DHT22;26978;44.830;-0.674;2023-02-22T11:21:51;12.80;99.90
35692;DHT22;26978;44.830;-0.674;2023-02-22T11:24:17;12.80;99.90
35692;DHT22;26978;44.830;-0.674;2023-02-22T11:26:53;12.90;99.90
35692;DHT22;26978;44.830;-0.674;2023-02-22T11:29:25;13.00;99.90
35692;DHT22;26978;44.830;-0.674;2023-02-22T11:38:24;13.30;99.90
35692;DHT22;26978;44.830;-0.674;2023-02-22T11:43:34;13.30;99.90
35692;DHT22;26978;44.830;-0.674;2023-02-22T11:51:39;13.70;99.90
35692;DHT22;26978;44.830;-0.674;2023-02-22T11:56:44;13.90;99.90
35692;DHT22;26978;44.830;-0.674;2023-02-22T11:59:14;14.10;99.90
35692;DHT22;26978;44.830;-0.674;2023-02-22T12:04:35;14.10;99.90
35692;DHT22;26978;44.830;-0.674;2023-02-22T12:09:35;14.20;99.90
35692;DHT22;26978;44.830;-0.674;2023-02-22T12:20:12;13.90;99.90
35692;DHT22;26978;44.830;-0.674;2023-02-22T12:22:44;13.70;99.90
35692;DHT22;26978;44.830;-0.674;2023-02-22T12:25:54;14.00;99.90
35692;DHT22;26978;44.830;-0.674;2023-02-22T12:31:32;14.30;99.90
35692;DHT22;26978;44.830;-0.674;2023-02-22T12:34:07;14.30;99.90
35692;DHT22;26978;44.830;-0.674;2023-02-22T12:36:40;14.10;99.90
35692;DHT22;26978;44.830;-0.674;2023-02-22T12:41:55;14.10;99.90
35692;DHT22;26978;44.830;-0.674;2023-02-22T12:44:27;14.20;99.90
35692;DHT22;26978;44.830;-0.674;2023-02-22T12:46:55;14.10;99.90
35692;DHT22;26978;44.830;-0.674;2023-02-22T12:59:43;13.60;99.90
35692;DHT22;26978;44.830;-0.674;2023-02-22T13:02:16;13.70;99.90
35692;DHT22;26978;44.830;-0.674;2023-02-22T13:04:42;13.60;99.90
35692;DHT22;26978;44.830;-0.674;2023-02-22T13:07:33;13.50;99.90
35692;DHT22;26978;44.830;-0.674;2023-02-22T13:15:01;13.40;99.90
35692;DHT22;26978;44.830;-0.674;2023-02-22T13:20:53;13.50;99.90
35692;DHT22;26978;44.830;-0.674;2023-02-22T13:23:14;13.50;99.90
35692;DHT22;26978;44.830;-0.674;2023-02-22T13:25:46;13.50;99.90
35692;DHT22;26978;44.830;-0.674;2023-02-22T13:28:22;13.60;99.90
35692;DHT22;26978;44.830;-0.674;2023-02-22T13:33:29;13.50;99.90
35692;DHT22;26978;44.830;-0.674;2023-02-22T13:44:49;13.40;99.90
35692;DHT22;26978;44.830;-0.674;2023-02-22T13:52:31;13.30;99.90
35692;DHT22;26978;44.830;-0.674;2023-02-22T13:55:03;13.20;99.90
35692;DHT22;26978;44.830;-0.674;2023-02-22T13:57:38;13.20;99.90
35692;DHT22;26978;44.830;-0.674;2023-02-22T14:02:56;13.10;99.90
35692;DHT22;26978;44.830;-0.674;2023-02-22T14:13:16;13.30;99.90
35692;DHT22;26978;44.830;-0.674;2023-02-22T14:16:24;13.50;99.90
35692;DHT22;26978;44.830;-0.674;2023-02-22T14:18:34;13.50;99.90
35692;DHT22;26978;44.830;-0.674;2023-02-22T14:21:03;13.60;99.90
35692;DHT22;26978;44.830;-0.674;2023-02-22T14:31:21;14.00;99.90
35692;DHT22;26978;44.830;-0.674;2023-02-22T14:36:33;14.30;99.90
35692;DHT22;26978;44.830;-0.674;2023-02-22T14:39:11;14.30;99.90
35692;DHT22;26978;44.830;-0.674;2023-02-22T14:41:37;14.30;99.90
35692;DHT22;26978;44.830;-0.674;2023-02-22T14:44:04;14.20;99.90
35692;DHT22;26978;44.830;-0.674;2023-02-22T14:46:33;14.00;99.90
35692;DHT22;26978;44.830;-0.674;2023-02-22T14:49:01;13.90;99.90
35692;DHT22;26978;44.830;-0.674;2023-02-22T14:51:40;13.80;99.90
35692;DHT22;26978;44.830;-0.674;2023-02-22T14:54:08;13.70;99.90
35692;DHT22;26978;44.830;-0.674;2023-02-22T14:56:37;13.60;99.90
35692;DHT22;26978;44.830;-0.674;2023-02-22T14:59:24;13.50;99.90
35692;DHT22;26978;44.830;-0.674;2023-02-22T15:04:35;13.30;99.90
35692;DHT22;26978;44.830;-0.674;2023-02-22T15:07:07;13.20;99.90
35692;DHT22;26978;44.830;-0.674;2023-02-22T15:09:33;13.30;99.90
35692;DHT22;26978;44.830;-0.674;2023-02-22T15:14:27;13.30;99.90
35692;DHT22;26978;44.830;-0.674;2023-02-22T15:16:55;13.30;99.90
35692;DHT22;26978;44.830;-0.674;2023-02-22T15:19:28;13.20;99.90
35692;DHT22;26978;44.830;-0.674;2023-02-22T15:21:55;13.10;99.90
35692;DHT22;26978;44.830;-0.674;2023-02-22T15:24:25;13.00;99.90
35692;DHT22;26978;44.830;-0.674;2023-02-22T15:26:51;13.00;99.90
35692;DHT22;26978;44.830;-0.674;2023-02-22T15:29:19;13.00;99.90
35692;DHT22;26978;44.830;-0.674;2023-02-22T15:31:45;13.10;99.90
35692;DHT22;26978;44.830;-0.674;2023-02-22T15:36:36;13.10;99.90
35692;DHT22;26978;44.830;-0.674;2023-02-22T15:39:02;13.20;99.90
35692;DHT22;26978;44.830;-0.674;2023-02-22T15:41:33;13.30;99.90
35692;DHT22;26978;44.830;-0.674;2023-02-22T15:44:00;13.30;99.90
35692;DHT22;26978;44.830;-0.674;2023-02-22T15:46:26;13.30;99.90
35692;DHT22;26978;44.830;-0.674;2023-02-22T15:51:29;13.30;99.90
35692;DHT22;26978;44.830;-0.674;2023-02-22T15:53:57;13.30;99.90
35692;DHT22;26978;44.830;-0.674;2023-02-22T15:56:27;13.20;99.90
35692;DHT22;26978;44.830;-0.674;2023-02-22T15:59:10;13.30;99.90
35692;DHT22;26978;44.830;-0.674;2023-02-22T16:01:40;13.40;99.90
35692;DHT22;26978;44.830;-0.674;2023-02-22T16:04:06;13.40;99.90
35692;DHT22;26978;44.830;-0.674;2023-02-22T16:06:39;13.30;99.90
35692;DHT22;26978;44.830;-0.674;2023-02-22T16:09:09;13.30;99.90
35692;DHT22;26978;44.830;-0.674;2023-02-22T16:11:40;13.20;99.90
35692;DHT22;26978;44.830;-0.674;2023-02-22T16:16:49;13.00;99.90
35692;DHT22;26978;44.830;-0.674;2023-02-22T16:19:24;12.80;99.90
35692;DHT22;26978;44.830;-0.674;2023-02-22T16:21:54;12.70;99.90
35692;DHT22;26978;44.830;-0.674;2023-02-22T16:24:25;12.50;99.90
35692;DHT22;26978;44.830;-0.674;2023-02-22T16:27:05;12.40;99.90
35692;DHT22;26978;44.830;-0.674;2023-02-22T16:29:31;12.40;99.90
35692;DHT22;26978;44.830;-0.674;2023-02-22T16:31:56;12.40;99.90
35692;DHT22;26978;44.830;-0.674;2023-02-22T16:34:22;12.40;99.90
35692;DHT22;26978;44.830;-0.674;2023-02-22T16:36:48;12.30;99.90
35692;DHT22;26978;44.830;-0.674;2023-02-22T16:41:43;12.30;99.90
35692;DHT22;26978;44.830;-0.674;2023-02-22T16:44:09;12.40;99.90
35692;DHT22;26978;44.830;-0.674;2023-02-22T16:46:37;12.40;99.90
35692;DHT22;26978;44.830;-0.674;2023-02-22T16:49:03;12.30;99.90
35692;DHT22;26978;44.830;-0.674;2023-02-22T16:51:31;12.30;99.90
35692;DHT22;26978;44.830;-0.674;2023-02-22T16:53:59;12.30;99.90
35692;DHT22;26978;44.830;-0.674;2023-02-22T16:56:26;12.20;99.90
35692;DHT22;26978;44.830;-0.674;2023-02-22T16:58:52;12.20;99.90
35692;DHT22;26978;44.830;-0.674;2023-02-22T17:01:18;12.20;99.90
35692;DHT22;26978;44.830;-0.674;2023-02-22T17:03:43;12.10;99.90
35692;DHT22;26978;44.830;-0.674;2023-02-22T17:06:09;12.10;99.90
35692;DHT22;26978;44.830;-0.674;2023-02-22T17:08:36;12.00;99.90
35692;DHT22;26978;44.830;-0.674;2023-02-22T17:11:01;12.00;99.90
35692;DHT22;26978;44.830;-0.674;2023-02-22T17:13:27;12.00;99.90
35692;DHT22;26978;44.830;-0.674;2023-02-22T17:15:54;12.00;99.90
35692;DHT22;26978;44.830;-0.674;2023-02-22T17:18:19;11.90;99.90
35692;DHT22;26978;44.830;-0.674;2023-02-22T17:20:47;11.90;99.90
35692;DHT22;26978;44.830;-0.674;2023-02-22T17:23:13;11.90;99.90
35692;DHT22;26978;44.830;-0.674;2023-02-22T17:25:43;11.80;99.90
35692;DHT22;26978;44.830;-0.674;2023-02-22T17:28:09;11.80;99.90
35692;DHT22;26978;44.830;-0.674;2023-02-22T17:30:35;11.80;99.90
35692;DHT22;26978;44.830;-0.674;2023-02-22T17:33:01;11.80;99.90
35692;DHT22;26978;44.830;-0.674;2023-02-22T17:35:28;11.80;99.90
35692;DHT22;26978;44.830;-0.674;2023-02-22T17:37:55;11.80;99.90
35692;DHT22;26978;44.830;-0.674;2023-02-22T17:40:21;11.80;99.90
35692;DHT22;26978;44.830;-0.674;2023-02-22T17:42:46;11.70;99.90
35692;DHT22;26978;44.830;-0.674;2023-02-22T17:45:14;11.80;99.90
35692;DHT22;26978;44.830;-0.674;2023-02-22T17:47:40;11.80;99.90
35692;DHT22;26978;44.830;-0.674;2023-02-22T17:50:07;11.80;99.90
35692;DHT22;26978;44.830;-0.674;2023-02-22T17:52:32;11.70;99.90
35692;DHT22;26978;44.830;-0.674;2023-02-22T17:54:58;11.70;99.90
35692;DHT22;26978;44.830;-0.674;2023-02-22T17:57:23;11.70;99.90